Time;durP1;ratioP1;P1;durP2;ratioP2;P2;SDS_P1;SDS_P2;PMS_P1;PMS_P2;Temp;Humidity;BMP_temperature;BMP_pressure;BME280_temperature;BME280_humidity;BME280_pressure;Samples;Min_cycle;Max_cycle;Signal;HPM_P1;HPM_P2
2020/12/30 00:00:46;;;;;;;14.88;10.18;;;3.80;93.30;;;;;;2087794;28;20446;-81
2020/12/30 00:01:47;;;;;;;15.15;10.40;;;3.80;93.30;;;;;;2082918;28;20036;-81
2020/12/30 00:02:47;;;;;;;14.98;10.30;;;3.80;93.30;;;;;;2090186;28;20053;-81
2020/12/30 00:03:48;;;;;;;16.65;10.52;;;3.80;93.30;;;;;;2090992;28;20124;-81
2020/12/30 00:04:49;;;;;;;16.55;10.48;;;3.70;93.30;;;;;;2087478;28;20071;-81
2020/12/30 00:05:50;;;;;;;16.55;10.15;;;3.70;93.30;;;;;;2098568;28;20035;-81
2020/12/30 00:06:53;;;;;;;14.85;10.18;;;3.70;93.30;;;;;;2084102;28;20026;-81
2020/12/30 00:07:54;;;;;;;15.20;9.95;;;3.70;93.30;;;;;;2080695;28;20633;-81
2020/12/30 00:08:54;;;;;;;13.13;9.20;;;3.70;93.30;;;;;;2087980;28;20044;-82
2020/12/30 00:09:55;;;;;;;15.52;10.25;;;3.70;93.40;;;;;;2085396;28;20122;-81
2020/12/30 00:10:55;;;;;;;14.82;9.88;;;3.70;93.40;;;;;;2080858;28;20080;-81
2020/12/30 00:11:56;;;;;;;16.77;10.80;;;3.70;93.40;;;;;;2082151;28;20044;-81
2020/12/30 00:12:57;;;;;;;15.13;9.95;;;3.70;93.40;;;;;;2081739;28;20052;-81
2020/12/30 00:13:58;;;;;;;15.15;9.88;;;3.60;93.40;;;;;;2075075;28;20476;-81
2020/12/30 00:14:59;;;;;;;16.13;9.73;;;3.60;93.40;;;;;;2088469;28;20025;-81
2020/12/30 00:15:59;;;;;;;14.13;9.93;;;3.60;93.40;;;;;;2082581;28;20117;-81
2020/12/30 00:17:02;;;;;;;15.25;10.40;;;3.70;93.40;;;;;;2082238;28;20053;-81
2020/12/30 00:18:03;;;;;;;13.52;9.90;;;3.60;93.40;;;;;;2082253;28;20055;-81
2020/12/30 00:19:04;;;;;;;13.57;9.45;;;3.60;93.40;;;;;;2084479;28;20033;-81
2020/12/30 00:20:05;;;;;;;15.43;10.07;;;3.60;93.40;;;;;;2082449;28;20029;-81
2020/12/30 00:21:06;;;;;;;14.05;10.13;;;3.60;93.40;;;;;;2103947;28;20077;-81
2020/12/30 00:22:06;;;;;;;13.85;10.20;;;3.60;93.40;;;;;;2089451;28;20033;-81
2020/12/30 00:23:07;;;;;;;16.38;10.68;;;3.60;93.40;;;;;;2073763;28;20030;-81
2020/12/30 00:24:08;;;;;;;14.35;10.10;;;3.60;93.40;;;;;;2089788;28;20559;-81
2020/12/30 00:25:08;;;;;;;15.20;10.00;;;3.50;93.40;;;;;;2098323;28;20143;-81
2020/12/30 00:26:09;;;;;;;16.85;10.73;;;3.50;93.40;;;;;;2092699;28;20025;-81
2020/12/30 00:27:10;;;;;;;15.38;10.13;;;3.50;93.40;;;;;;2080479;28;20553;-81
2020/12/30 00:28:10;;;;;;;16.45;11.00;;;3.50;93.40;;;;;;2090229;28;20538;-81
2020/12/30 00:29:11;;;;;;;15.55;10.45;;;3.50;93.40;;;;;;2098523;28;20028;-81
2020/12/30 00:30:18;;;;;;;19.90;12.10;;;3.50;93.40;;;;;;2081896;28;20026;-81
2020/12/30 00:31:19;;;;;;;16.05;10.23;;;3.50;93.40;;;;;;2084209;28;20029;-81
2020/12/30 00:32:19;;;;;;;14.48;9.93;;;3.50;93.40;;;;;;2093633;28;20029;-81
2020/12/30 00:33:20;;;;;;;14.35;10.32;;;3.50;93.40;;;;;;2076161;28;20030;-81
2020/12/30 00:34:21;;;;;;;15.88;10.70;;;3.40;93.40;;;;;;2088484;28;20414;-81
2020/12/30 00:35:21;;;;;;;15.68;10.63;;;3.40;93.40;;;;;;2089744;28;20036;-81
2020/12/30 00:36:22;;;;;;;17.92;11.10;;;3.40;93.40;;;;;;2086190;28;20036;-81
2020/12/30 00:37:23;;;;;;;17.40;11.57;;;3.40;93.40;;;;;;2082044;28;20037;-81
2020/12/30 00:38:23;;;;;;;15.80;11.77;;;3.40;93.40;;;;;;2099182;28;20024;-81
2020/12/30 00:39:24;;;;;;;16.55;11.27;;;3.30;93.40;;;;;;2090522;28;20387;-81
2020/12/30 00:40:25;;;;;;;18.92;11.63;;;3.40;93.40;;;;;;2090824;28;20037;-81
2020/12/30 00:41:25;;;;;;;19.95;12.50;;;3.40;93.40;;;;;;2089437;28;20490;-80
2020/12/30 00:42:30;;;;;;;16.95;11.48;;;3.30;93.40;;;;;;2081811;28;20081;-81
2020/12/30 00:43:31;;;;;;;17.80;11.65;;;3.40;93.40;;;;;;2089959;28;20518;-80
2020/12/30 00:44:32;;;;;;;16.70;11.52;;;3.30;93.40;;;;;;2088099;28;20029;-82
2020/12/30 00:45:35;;;;;;;18.33;11.90;;;3.30;93.40;;;;;;2088487;28;20231;-81
2020/12/30 00:46:36;;;;;;;17.95;12.52;;;3.30;93.40;;;;;;2090720;28;20505;-81
2020/12/30 00:47:37;;;;;;;18.83;12.38;;;3.30;93.40;;;;;;2090032;28;20029;-81
2020/12/30 00:48:38;;;;;;;18.95;12.50;;;3.30;93.40;;;;;;2088990;28;20083;-81
2020/12/30 00:49:38;;;;;;;17.25;12.00;;;3.30;93.60;;;;;;2088331;28;20490;-81
2020/12/30 00:50:39;;;;;;;17.50;12.10;;;3.30;93.40;;;;;;2089669;28;20036;-81
2020/12/30 00:51:39;;;;;;;17.92;11.85;;;3.20;93.40;;;;;;2095701;28;20055;-81
2020/12/30 00:52:40;;;;;;;15.90;11.57;;;3.20;93.40;;;;;;2097565;28;20040;-81
2020/12/30 00:53:41;;;;;;;18.60;12.85;;;3.20;93.40;;;;;;2105840;28;20032;-81
2020/12/30 00:54:42;;;;;;;18.40;12.35;;;3.20;93.40;;;;;;2102541;28;20023;-81
2020/12/30 00:55:43;;;;;;;16.92;11.85;;;3.20;93.40;;;;;;2089712;28;20024;-81
2020/12/30 00:56:44;;;;;;;18.45;12.27;;;3.20;93.40;;;;;;2084154;28;20037;-81
2020/12/30 00:57:44;;;;;;;18.30;11.93;;;3.20;93.40;;;;;;2081556;28;20116;-81
2020/12/30 00:58:45;;;;;;;17.73;11.73;;;3.20;93.40;;;;;;2089436;28;20060;-81
2020/12/30 00:59:45;;;;;;;19.60;12.30;;;3.10;93.40;;;;;;2090139;28;20021;-80
2020/12/30 01:00:46;;;;;;;15.48;11.60;;;3.20;93.40;;;;;;2081044;28;20030;-81
2020/12/30 01:01:53;;;;;;;18.50;12.18;;;3.20;93.40;;;;;;2088795;28;20052;-81
2020/12/30 01:02:54;;;;;;;16.08;11.32;;;3.20;93.40;;;;;;2089801;28;20097;-81
2020/12/30 01:03:54;;;;;;;15.68;10.90;;;3.20;93.40;;;;;;2081016;28;20503;-81
2020/12/30 01:04:55;;;;;;;17.17;11.77;;;3.10;93.40;;;;;;2080923;28;20038;-81
2020/12/30 01:05:56;;;;;;;16.88;11.95;;;3.10;93.40;;;;;;2086990;28;20079;-81
2020/12/30 01:06:57;;;;;;;16.15;11.18;;;3.10;93.40;;;;;;2090538;28;20136;-81
2020/12/30 01:07:57;;;;;;;17.63;11.45;;;3.10;93.40;;;;;;2088747;28;20025;-80
2020/12/30 01:08:58;;;;;;;17.42;10.85;;;3.10;93.40;;;;;;2086274;28;20464;-80
2020/12/30 01:09:59;;;;;;;16.77;10.68;;;3.00;93.40;;;;;;2088366;28;20025;-81
2020/12/30 01:11:00;;;;;;;16.40;10.85;;;3.10;93.40;;;;;;2085172;28;20120;-81
2020/12/30 01:12:05;;;;;;;18.10;11.50;;;3.10;93.40;;;;;;2082206;28;20056;-81
2020/12/30 01:13:07;;;;;;;15.55;10.93;;;3.10;93.40;;;;;;2082142;28;20469;-81
2020/12/30 01:14:07;;;;;;;17.98;11.48;;;3.10;93.40;;;;;;2082140;28;20022;-81
2020/12/30 01:15:08;;;;;;;15.98;10.88;;;3.00;93.40;;;;;;2081556;28;20029;-81
2020/12/30 01:16:10;;;;;;;16.42;11.05;;;3.00;93.40;;;;;;2067600;28;20070;-81
2020/12/30 01:17:11;;;;;;;16.77;11.02;;;3.00;93.50;;;;;;2074373;28;20045;-81
2020/12/30 01:18:12;;;;;;;17.10;11.27;;;3.00;93.50;;;;;;2098091;28;20037;-81
2020/12/30 01:19:13;;;;;;;17.70;11.80;;;3.00;93.50;;;;;;2081971;28;20103;-81
2020/12/30 01:20:13;;;;;;;16.52;11.50;;;3.00;93.50;;;;;;2065328;28;20084;-81
2020/12/30 01:21:14;;;;;;;17.48;11.75;;;3.00;93.50;;;;;;2087752;28;20530;-81
2020/12/30 01:22:15;;;;;;;19.58;11.98;;;2.90;93.50;;;;;;2098344;28;20032;-81
2020/12/30 01:23:16;;;;;;;15.73;10.93;;;2.90;93.50;;;;;;2097689;28;20525;-81
2020/12/30 01:24:17;;;;;;;17.33;11.45;;;2.90;93.50;;;;;;2080402;28;20061;-81
2020/12/30 01:25:18;;;;;;;19.58;12.70;;;2.90;93.50;;;;;;2073167;28;20030;-81
2020/12/30 01:26:18;;;;;;;18.00;12.27;;;2.90;93.50;;;;;;2088080;28;20025;-82
2020/12/30 01:27:19;;;;;;;18.00;12.43;;;2.90;93.50;;;;;;2082138;28;20021;-81
2020/12/30 01:28:20;;;;;;;19.52;13.00;;;2.90;93.50;;;;;;2087893;28;20025;-81
2020/12/30 01:29:20;;;;;;;19.25;11.95;;;2.90;93.50;;;;;;2091476;28;20037;-81
2020/12/30 01:30:22;;;;;;;17.55;11.63;;;2.90;93.50;;;;;;2098031;28;20039;-81
2020/12/30 01:31:29;;;;;;;19.55;12.75;;;2.90;93.50;;;;;;2089742;28;20025;-81
2020/12/30 01:32:31;;;;;;;16.40;11.90;;;2.80;93.50;;;;;;2087840;28;20067;-81
2020/12/30 01:33:32;;;;;;;16.83;11.27;;;2.80;93.50;;;;;;2089725;28;20029;-81
2020/12/30 01:34:32;;;;;;;17.23;11.90;;;2.80;93.50;;;;;;2079027;28;20133;-81
2020/12/30 01:35:33;;;;;;;17.92;12.23;;;2.80;93.50;;;;;;2079699;28;20419;-81
2020/12/30 01:36:36;;;;;;;18.38;12.55;;;2.80;93.50;;;;;;2086911;28;20041;-81
2020/12/30 01:37:36;;;;;;;18.48;12.50;;;2.80;93.50;;;;;;2082392;28;20028;-81
2020/12/30 01:38:37;;;;;;;20.67;12.75;;;2.80;93.80;;;;;;2081426;28;20518;-81
2020/12/30 01:39:38;;;;;;;18.50;12.40;;;2.70;93.50;;;;;;2082132;28;20036;-82
2020/12/30 01:40:38;;;;;;;17.48;12.27;;;2.80;93.50;;;;;;2072889;28;20053;-82
2020/12/30 01:41:39;;;;;;;17.60;12.10;;;2.80;93.60;;;;;;2077856;28;20418;-82
2020/12/30 01:42:47;;;;;;;19.05;12.30;;;2.80;93.60;;;;;;2089507;28;20033;-82
2020/12/30 01:44:08;;;;;;;17.55;12.10;;;2.80;93.60;;;;;;2082356;28;20025;-82
2020/12/30 01:45:09;;;;;;;17.83;11.80;;;2.80;93.60;;;;;;2085845;28;20052;-81
2020/12/30 01:46:10;;;;;;;17.20;11.88;;;2.80;93.60;;;;;;2089597;28;20032;-81
2020/12/30 01:47:12;;;;;;;19.33;12.38;;;2.80;93.50;;;;;;2087340;28;20499;-81
2020/12/30 01:48:16;;;;;;;17.55;11.85;;;2.80;93.50;;;;;;2083232;28;20175;-81
2020/12/30 01:49:21;;;;;;;19.45;12.45;;;2.80;93.50;;;;;;2086967;28;20021;-81
2020/12/30 01:50:22;;;;;;;18.70;12.52;;;2.80;93.60;;;;;;2086384;28;20080;-81
2020/12/30 01:51:24;;;;;;;18.58;12.23;;;2.80;93.60;;;;;;2097618;28;20016;-81
2020/12/30 01:52:24;;;;;;;18.80;12.75;;;2.80;93.50;;;;;;2089248;28;20377;-81
2020/12/30 01:53:25;;;;;;;18.58;12.25;;;2.80;93.50;;;;;;2087362;28;20063;-81
2020/12/30 01:54:27;;;;;;;17.83;11.93;;;2.80;93.50;;;;;;2084150;28;20027;-81
2020/12/30 01:55:31;;;;;;;16.95;11.65;;;2.80;93.50;;;;;;2075467;28;20042;-81
2020/12/30 01:56:33;;;;;;;18.52;12.38;;;2.80;93.50;;;;;;2081537;28;20071;-81
2020/12/30 01:57:37;;;;;;;18.15;12.05;;;2.90;93.50;;;;;;2088837;28;20048;-81
2020/12/30 01:58:37;;;;;;;17.52;12.18;;;2.90;93.50;;;;;;2081376;28;20047;-81
2020/12/30 01:59:38;;;;;;;21.48;13.23;;;2.90;93.40;;;;;;2088813;28;20083;-81
2020/12/30 02:00:40;;;;;;;18.73;12.98;;;2.80;93.40;;;;;;2089482;28;20463;-81
2020/12/30 02:01:51;;;;;;;19.63;12.68;;;2.90;93.40;;;;;;2086197;28;20480;-81
2020/12/30 02:02:59;;;;;;;22.20;14.00;;;2.90;93.40;;;;;;2088690;28;20118;-81
2020/12/30 02:04:06;;;;;;;19.45;13.00;;;2.80;93.30;;;;;;2081492;28;20164;-81
2020/12/30 02:05:08;;;;;;;18.30;12.27;;;2.80;93.30;;;;;;2081071;28;20026;-82
2020/12/30 02:06:08;;;;;;;20.15;13.95;;;2.80;93.30;;;;;;2081291;28;20036;-81
2020/12/30 02:07:09;;;;;;;20.00;12.88;;;2.80;93.30;;;;;;2079594;28;20216;-81
2020/12/30 02:08:12;;;;;;;19.13;13.98;;;2.80;93.30;;;;;;2069088;28;20487;-81
2020/12/30 02:09:12;;;;;;;22.23;14.77;;;2.80;93.30;;;;;;2078991;28;20085;-81
2020/12/30 02:10:16;;;;;;;20.73;13.50;;;2.80;93.30;;;;;;2085566;28;20414;-81
2020/12/30 02:11:18;;;;;;;18.58;12.93;;;2.70;93.30;;;;;;2084521;28;20022;-81
2020/12/30 02:12:18;;;;;;;21.02;13.57;;;2.70;93.40;;;;;;2088413;28;20044;-81
2020/12/30 02:13:19;;;;;;;19.73;13.82;;;2.80;93.40;;;;;;2097922;28;20494;-81
2020/12/30 02:14:20;;;;;;;19.77;13.45;;;2.80;93.40;;;;;;2089024;28;20478;-81
2020/12/30 02:15:23;;;;;;;19.63;13.32;;;2.80;93.40;;;;;;2079637;28;20047;-81
2020/12/30 02:16:24;;;;;;;20.27;13.55;;;2.80;93.40;;;;;;2087787;28;20091;-80
2020/12/30 02:17:25;;;;;;;20.15;13.45;;;2.80;93.40;;;;;;2081123;28;20115;-81
2020/12/30 02:18:28;;;;;;;20.48;13.10;;;2.80;93.40;;;;;;2072856;28;20062;-80
2020/12/30 02:19:29;;;;;;;18.35;13.30;;;2.80;93.40;;;;;;2089495;28;20029;-80
2020/12/30 02:20:30;;;;;;;18.88;13.00;;;2.70;93.30;;;;;;2097107;28;20031;-79
2020/12/30 02:21:31;;;;;;;18.60;13.38;;;2.80;93.30;;;;;;2089444;28;20039;-80
2020/12/30 02:22:32;;;;;;;19.35;13.02;;;2.70;93.30;;;;;;2089883;28;20036;-80
2020/12/30 02:23:34;;;;;;;19.20;12.80;;;2.80;93.30;;;;;;2089867;28;20033;-80
2020/12/30 02:24:36;;;;;;;18.42;13.00;;;2.80;93.30;;;;;;2089677;28;20033;-80
2020/12/30 02:25:37;;;;;;;19.52;12.32;;;2.80;93.30;;;;;;2086242;28;20100;-80
2020/12/30 02:26:37;;;;;;;18.23;12.77;;;2.80;93.30;;;;;;2082193;28;20415;-80
2020/12/30 02:27:38;;;;;;;17.75;12.32;;;2.80;93.30;;;;;;2088628;28;20021;-80
2020/12/30 02:28:39;;;;;;;18.70;12.68;;;2.80;93.30;;;;;;2089176;28;20031;-80
2020/12/30 02:29:39;;;;;;;18.95;12.95;;;2.70;93.30;;;;;;2074712;28;20109;-80
2020/12/30 02:30:40;;;;;;;17.55;11.90;;;2.70;93.40;;;;;;2089226;28;20036;-80
2020/12/30 02:31:41;;;;;;;18.77;12.57;;;2.70;93.40;;;;;;2089815;28;20490;-80
2020/12/30 02:32:41;;;;;;;20.17;13.23;;;2.70;93.40;;;;;;2076215;28;20077;-79
2020/12/30 02:33:42;;;;;;;17.98;12.70;;;2.70;93.40;;;;;;2078711;28;20068;-80
2020/12/30 02:34:42;;;;;;;16.85;12.13;;;2.70;93.40;;;;;;2089737;28;20032;-80
2020/12/30 02:35:43;;;;;;;17.92;12.05;;;2.70;93.40;;;;;;2092484;28;20398;-79
2020/12/30 02:36:44;;;;;;;18.38;12.45;;;2.60;93.40;;;;;;2090685;28;20119;-80
2020/12/30 02:37:45;;;;;;;17.23;12.05;;;2.60;93.40;;;;;;2082741;28;20022;-80
2020/12/30 02:38:50;;;;;;;18.52;11.98;;;2.60;93.50;;;;;;2086326;28;20487;-80
2020/12/30 02:39:50;;;;;;;17.83;11.90;;;2.60;93.40;;;;;;2097116;28;20058;-80
2020/12/30 02:40:51;;;;;;;16.20;11.98;;;2.60;93.50;;;;;;2088891;28;20059;-80
2020/12/30 02:41:51;;;;;;;19.80;12.43;;;2.60;93.50;;;;;;2073503;28;20384;-80
2020/12/30 02:42:52;;;;;;;19.08;12.07;;;2.60;93.50;;;;;;2072827;28;20484;-80
2020/12/30 02:43:53;;;;;;;18.05;12.00;;;2.60;93.50;;;;;;2104389;28;20024;-80
2020/12/30 02:44:59;;;;;;;19.50;12.55;;;2.60;93.50;;;;;;2099660;28;20037;-80
2020/12/30 02:46:00;;;;;;;19.35;12.73;;;2.60;93.50;;;;;;2090663;28;20025;-80
2020/12/30 02:47:00;;;;;;;17.92;11.38;;;2.60;93.50;;;;;;2091962;28;20028;-82
2020/12/30 02:48:01;;;;;;;19.55;12.57;;;2.60;93.50;;;;;;2091729;28;20429;-80
2020/12/30 02:49:02;;;;;;;17.38;12.23;;;2.60;93.50;;;;;;2097638;28;20179;-80
2020/12/30 02:50:04;;;;;;;17.13;12.27;;;2.60;93.50;;;;;;2087244;28;20376;-80
2020/12/30 02:51:05;;;;;;;18.10;12.02;;;2.50;93.50;;;;;;2088740;28;20112;-80
2020/12/30 02:52:06;;;;;;;16.98;11.82;;;2.50;93.50;;;;;;2081335;28;20066;-80
2020/12/30 02:53:07;;;;;;;17.75;12.10;;;2.50;93.50;;;;;;2080889;28;20029;-80
2020/12/30 02:54:07;;;;;;;19.05;12.38;;;2.50;93.50;;;;;;2080657;28;20156;-80
2020/12/30 02:55:08;;;;;;;18.55;12.13;;;2.50;93.80;;;;;;2080909;28;20071;-80
2020/12/30 02:56:09;;;;;;;16.90;11.93;;;2.50;93.50;;;;;;2080429;28;20033;-80
2020/12/30 02:57:09;;;;;;;18.75;12.90;;;2.50;93.50;;;;;;2082802;28;20375;-80
2020/12/30 02:58:10;;;;;;;19.13;12.32;;;2.50;93.50;;;;;;2087485;28;20029;-80
2020/12/30 02:59:10;;;;;;;17.58;11.88;;;2.50;93.50;;;;;;2080906;28;20087;-80
2020/12/30 03:00:11;;;;;;;17.08;11.90;;;2.50;93.50;;;;;;2078113;28;20045;-80
2020/12/30 03:01:12;;;;;;;19.02;12.32;;;2.50;93.50;;;;;;2078092;28;20587;-80
2020/12/30 03:02:13;;;;;;;18.00;12.35;;;2.50;93.60;;;;;;2096532;28;20135;-80
2020/12/30 03:03:13;;;;;;;18.80;13.48;;;2.50;93.50;;;;;;2097258;28;20025;-80
2020/12/30 03:04:14;;;;;;;18.08;12.50;;;2.40;93.50;;;;;;2087546;28;20483;-79
2020/12/30 03:05:15;;;;;;;18.33;11.73;;;2.50;93.50;;;;;;2082689;28;20513;-80
2020/12/30 03:06:15;;;;;;;18.63;12.35;;;2.40;93.50;;;;;;2082269;28;20487;-80
2020/12/30 03:07:16;;;;;;;17.80;12.32;;;2.50;93.50;;;;;;2081772;28;20029;-80
2020/12/30 03:08:17;;;;;;;18.58;12.70;;;2.40;93.50;;;;;;2090502;28;20441;-80
2020/12/30 03:09:18;;;;;;;16.85;11.70;;;2.40;93.50;;;;;;2098615;28;20435;-80
2020/12/30 03:10:18;;;;;;;17.48;11.65;;;2.40;93.50;;;;;;2091322;28;20086;-80
2020/12/30 03:11:21;;;;;;;18.48;11.75;;;2.40;93.50;;;;;;2095742;28;20032;-80
2020/12/30 03:12:21;;;;;;;17.98;11.90;;;2.40;93.50;;;;;;2082115;28;20377;-80
2020/12/30 03:13:22;;;;;;;16.63;11.15;;;2.40;93.50;;;;;;2096610;28;20031;-79
2020/12/30 03:14:22;;;;;;;18.70;12.02;;;2.40;93.50;;;;;;2089576;28;20036;-80
2020/12/30 03:15:23;;;;;;;18.05;11.45;;;2.40;93.50;;;;;;2088517;28;20449;-80
2020/12/30 03:16:24;;;;;;;18.00;11.95;;;2.40;93.50;;;;;;2081270;28;20145;-80
2020/12/30 03:17:24;;;;;;;17.48;11.70;;;2.40;93.50;;;;;;2080801;28;20068;-80
2020/12/30 03:18:25;;;;;;;18.10;11.57;;;2.40;93.50;;;;;;2097422;28;20340;-79
2020/12/30 03:19:26;;;;;;;19.17;12.05;;;2.40;93.50;;;;;;2097199;28;20055;-80
2020/12/30 03:20:26;;;;;;;19.25;12.70;;;2.40;93.50;;;;;;2081016;28;20463;-79
2020/12/30 03:21:27;;;;;;;17.02;11.52;;;2.40;93.50;;;;;;2081070;28;20133;-80
2020/12/30 03:22:27;;;;;;;16.92;11.43;;;2.50;93.50;;;;;;2081131;28;20116;-79
2020/12/30 03:23:28;;;;;;;17.42;11.70;;;2.50;93.50;;;;;;2081237;28;20036;-80
2020/12/30 03:24:29;;;;;;;17.35;12.35;;;2.50;93.50;;;;;;2080697;28;20033;-79
2020/12/30 03:25:29;;;;;;;17.95;12.13;;;2.50;93.50;;;;;;2079893;28;20427;-80
2020/12/30 03:26:32;;;;;;;19.02;12.77;;;2.50;93.40;;;;;;2085098;28;20377;-79
2020/12/30 03:27:32;;;;;;;17.98;11.80;;;2.50;93.40;;;;;;2080723;28;20583;-79
2020/12/30 03:28:33;;;;;;;17.75;11.48;;;2.50;93.40;;;;;;2081078;28;20036;-79
2020/12/30 03:29:34;;;;;;;17.73;11.93;;;2.50;93.40;;;;;;2081231;28;20033;-79
2020/12/30 03:30:34;;;;;;;16.65;11.90;;;2.60;93.40;;;;;;2081201;28;20128;-79
2020/12/30 03:31:35;;;;;;;18.13;12.13;;;2.60;93.40;;;;;;2085071;28;20368;-79
2020/12/30 03:32:36;;;;;;;17.73;12.10;;;2.60;93.40;;;;;;2083626;28;20029;-79
2020/12/30 03:33:36;;;;;;;17.90;11.88;;;2.60;93.30;;;;;;2088763;28;20429;-80
2020/12/30 03:34:37;;;;;;;17.58;11.32;;;2.60;93.30;;;;;;2085795;28;20037;-79
2020/12/30 03:35:37;;;;;;;17.95;12.60;;;2.60;93.30;;;;;;2080446;28;20048;-79
2020/12/30 03:36:38;;;;;;;16.95;11.85;;;2.60;93.30;;;;;;2095826;28;20044;-80
2020/12/30 03:37:39;;;;;;;19.58;12.02;;;2.70;93.30;;;;;;2081110;28;20110;-80
2020/12/30 03:38:39;;;;;;;17.58;11.80;;;2.70;93.30;;;;;;2080833;28;20044;-80
2020/12/30 03:39:40;;;;;;;16.65;11.70;;;2.60;93.30;;;;;;2089959;28;20055;-80
2020/12/30 03:40:41;;;;;;;18.30;11.85;;;2.70;93.30;;;;;;2093511;28;20044;-79
2020/12/30 03:41:42;;;;;;;17.63;11.57;;;2.70;93.30;;;;;;2081240;28;20025;-79
2020/12/30 03:42:42;;;;;;;18.45;11.88;;;2.70;93.30;;;;;;2080524;28;20029;-80
2020/12/30 03:43:43;;;;;;;17.85;12.18;;;2.70;93.30;;;;;;2081813;28;20021;-79
2020/12/30 03:44:44;;;;;;;18.25;11.88;;;2.70;93.20;;;;;;2096576;28;20530;-79
2020/12/30 03:45:44;;;;;;;17.45;12.23;;;2.70;93.20;;;;;;2092094;28;20028;-80
2020/12/30 03:46:45;;;;;;;17.92;11.75;;;2.70;93.20;;;;;;2087581;28;20429;-80
2020/12/30 03:47:46;;;;;;;18.08;12.30;;;2.70;93.20;;;;;;2080636;28;20045;-80
2020/12/30 03:48:46;;;;;;;18.70;11.95;;;2.70;93.20;;;;;;2080321;28;20028;-79
2020/12/30 03:49:48;;;;;;;18.13;11.77;;;2.70;93.20;;;;;;2081158;28;20041;-80
2020/12/30 03:50:48;;;;;;;18.33;12.32;;;2.80;93.20;;;;;;2097085;28;20063;-79
2020/12/30 03:51:49;;;;;;;17.38;11.98;;;2.80;93.30;;;;;;2094778;28;20123;-79
2020/12/30 03:52:49;;;;;;;17.88;11.82;;;2.80;93.20;;;;;;2086237;28;20764;-79
2020/12/30 03:53:50;;;;;;;18.80;12.30;;;2.70;93.20;;;;;;2088762;28;20033;-80
2020/12/30 03:54:51;;;;;;;17.63;11.57;;;2.70;93.20;;;;;;2094759;28;20017;-80
2020/12/30 03:55:52;;;;;;;17.80;11.73;;;2.80;93.20;;;;;;2087041;28;20055;-79
2020/12/30 03:56:53;;;;;;;18.95;11.85;;;2.80;93.20;;;;;;2072267;28;20103;-80
2020/12/30 03:57:53;;;;;;;17.40;11.70;;;2.80;93.20;;;;;;2082890;28;20114;-80
2020/12/30 03:58:54;;;;;;;18.98;12.45;;;2.80;93.20;;;;;;2088381;28;20082;-79
2020/12/30 03:59:54;;;;;;;17.15;11.68;;;2.80;93.20;;;;;;2088520;28;20033;-79
2020/12/30 04:00:55;;;;;;;18.15;11.73;;;2.80;93.20;;;;;;2094934;28;20459;-79
2020/12/30 04:01:55;;;;;;;17.85;12.25;;;2.80;93.20;;;;;;2089147;28;20025;-80
2020/12/30 04:02:56;;;;;;;18.55;11.70;;;2.80;93.20;;;;;;2088434;28;20394;-80
2020/12/30 04:03:57;;;;;;;18.38;12.02;;;2.90;93.50;;;;;;2097046;28;20100;-80
2020/12/30 04:04:57;;;;;;;17.60;11.63;;;2.90;93.20;;;;;;2096997;28;20083;-80
2020/12/30 04:05:58;;;;;;;16.15;11.32;;;2.90;93.20;;;;;;2087788;28;20407;-80
2020/12/30 04:06:59;;;;;;;17.17;11.60;;;2.90;93.20;;;;;;2088680;28;20403;-80
2020/12/30 04:07:59;;;;;;;17.30;11.82;;;2.90;93.20;;;;;;2088832;28;20029;-80
2020/12/30 04:09:00;;;;;;;17.00;11.85;;;2.90;93.10;;;;;;2086736;28;20053;-80
2020/12/30 04:10:01;;;;;;;18.00;12.05;;;3.00;93.20;;;;;;2086930;28;20033;-80
2020/12/30 04:11:01;;;;;;;16.45;11.82;;;2.90;93.10;;;;;;2080994;28;20029;-80
2020/12/30 04:12:02;;;;;;;18.85;11.43;;;2.90;93.10;;;;;;2081155;28;20464;-80
2020/12/30 04:13:03;;;;;;;18.85;11.68;;;2.90;93.10;;;;;;2081050;28;20109;-80
2020/12/30 04:14:04;;;;;;;16.75;11.25;;;3.00;93.10;;;;;;2084269;28;20048;-80
2020/12/30 04:15:04;;;;;;;16.25;11.38;;;3.00;93.10;;;;;;2081129;28;20029;-80
2020/12/30 04:16:05;;;;;;;17.80;11.55;;;3.00;93.10;;;;;;2074162;28;20034;-80
2020/12/30 04:17:06;;;;;;;17.48;11.52;;;3.00;93.10;;;;;;2088289;28;20085;-80
2020/12/30 04:18:06;;;;;;;17.85;11.48;;;3.00;93.10;;;;;;2086262;28;20462;-80
2020/12/30 04:19:07;;;;;;;15.63;11.25;;;3.00;93.10;;;;;;2088651;28;20025;-80
2020/12/30 04:20:08;;;;;;;19.90;12.38;;;3.00;93.10;;;;;;2089132;28;20021;-80
2020/12/30 04:21:08;;;;;;;17.13;11.63;;;3.00;93.10;;;;;;2071667;28;20033;-79
2020/12/30 04:22:09;;;;;;;17.48;11.32;;;3.00;93.10;;;;;;2079993;28;20032;-80
2020/12/30 04:23:09;;;;;;;16.80;11.73;;;3.00;93.10;;;;;;2080792;28;20131;-80
2020/12/30 04:24:10;;;;;;;18.05;11.95;;;3.00;93.10;;;;;;2081081;28;20036;-80
2020/12/30 04:25:11;;;;;;;17.90;12.15;;;3.00;93.10;;;;;;2080696;28;20406;-80
2020/12/30 04:26:12;;;;;;;18.58;11.73;;;2.90;93.10;;;;;;2080495;28;20063;-80
2020/12/30 04:27:13;;;;;;;16.88;11.55;;;2.90;93.10;;;;;;2080802;28;20028;-80
2020/12/30 04:28:17;;;;;;;16.92;11.52;;;2.90;93.10;;;;;;2082624;28;20045;-81
2020/12/30 04:29:18;;;;;;;16.25;11.23;;;2.90;93.10;;;;;;2081001;28;20489;-80
2020/12/30 04:30:18;;;;;;;17.85;11.90;;;2.90;93.10;;;;;;2080253;28;20041;-79
2020/12/30 04:31:19;;;;;;;17.63;12.00;;;2.90;93.10;;;;;;2080267;28;20087;-79
2020/12/30 04:32:20;;;;;;;18.60;12.18;;;2.90;93.10;;;;;;2083213;28;20515;-80
2020/12/30 04:33:21;;;;;;;17.73;12.55;;;2.90;93.10;;;;;;2089208;28;20556;-80
2020/12/30 04:34:22;;;;;;;18.00;12.25;;;2.90;93.10;;;;;;2088380;28;20039;-80
2020/12/30 04:35:22;;;;;;;17.85;11.98;;;2.90;93.10;;;;;;2089373;28;20036;-80
2020/12/30 04:36:24;;;;;;;18.08;11.38;;;2.90;93.10;;;;;;2082905;28;20069;-79
2020/12/30 04:37:25;;;;;;;18.63;11.73;;;2.90;93.20;;;;;;2096866;28;20032;-80
2020/12/30 04:38:26;;;;;;;16.27;11.57;;;2.90;93.20;;;;;;2095549;28;20040;-80
2020/12/30 04:39:26;;;;;;;17.65;12.32;;;2.90;93.20;;;;;;2080918;28;20448;-80
2020/12/30 04:40:28;;;;;;;17.38;11.18;;;2.90;93.20;;;;;;2098214;28;20032;-80
2020/12/30 04:41:32;;;;;;;16.75;10.82;;;2.90;93.20;;;;;;2101418;28;20047;-79
2020/12/30 04:42:35;;;;;;;17.85;11.57;;;2.90;93.20;;;;;;2082421;28;20357;-80
2020/12/30 04:43:37;;;;;;;18.55;11.45;;;2.90;93.20;;;;;;2082775;28;20025;-79
2020/12/30 04:44:43;;;;;;;17.80;10.77;;;2.90;93.20;;;;;;2103726;28;20036;-80
2020/12/30 04:45:44;;;;;;;16.40;10.95;;;2.90;93.20;;;;;;2102850;28;20055;-80
2020/12/30 04:46:48;;;;;;;17.13;11.80;;;2.90;93.20;;;;;;2089655;28;20499;-80
2020/12/30 04:47:50;;;;;;;18.35;11.57;;;2.90;93.20;;;;;;2092814;28;20478;-80
2020/12/30 04:48:51;;;;;;;17.65;10.70;;;2.90;93.20;;;;;;2097678;28;20051;-80
2020/12/30 04:49:52;;;;;;;16.83;11.32;;;3.00;93.20;;;;;;2081964;28;20087;-80
2020/12/30 04:50:53;;;;;;;16.73;11.35;;;3.00;93.20;;;;;;2091587;28;20025;-80
2020/12/30 04:51:55;;;;;;;16.52;11.55;;;3.00;93.10;;;;;;2088233;28;20035;-80
2020/12/30 04:52:55;;;;;;;19.23;12.23;;;3.00;93.20;;;;;;2081754;28;20021;-80
2020/12/30 04:54:00;;;;;;;18.83;11.50;;;3.00;93.10;;;;;;2081557;28;20112;-80
2020/12/30 04:55:02;;;;;;;17.55;11.68;;;3.00;93.10;;;;;;2082052;28;20467;-80
2020/12/30 04:56:02;;;;;;;16.60;11.25;;;3.00;93.10;;;;;;2082299;28;20030;-80
2020/12/30 04:57:03;;;;;;;18.58;12.32;;;3.00;93.10;;;;;;2082370;28;20029;-80
2020/12/30 04:58:07;;;;;;;18.38;12.25;;;3.10;93.10;;;;;;2082948;28;20108;-80
2020/12/30 04:59:09;;;;;;;17.75;11.57;;;3.10;93.10;;;;;;2082124;28;20028;-80
2020/12/30 05:00:10;;;;;;;17.88;11.80;;;3.10;93.10;;;;;;2083003;28;20029;-80
2020/12/30 05:01:15;;;;;;;17.83;11.57;;;3.10;93.10;;;;;;2097696;28;20078;-80
2020/12/30 05:02:26;;;;;;;17.83;11.75;;;3.10;93.10;;;;;;2097409;28;20394;-80
2020/12/30 05:03:29;;;;;;;20.08;12.52;;;3.10;93.10;;;;;;2090616;28;20116;-80
2020/12/30 05:04:31;;;;;;;17.75;11.45;;;3.10;93.10;;;;;;2090389;28;20017;-80
2020/12/30 05:05:34;;;;;;;18.88;10.90;;;3.10;93.10;;;;;;2089645;28;20523;-80
2020/12/30 05:06:38;;;;;;;19.30;11.05;;;3.10;93.10;;;;;;2090421;28;20379;-80
2020/12/30 05:07:42;;;;;;;17.05;11.05;;;3.10;93.10;;;;;;2090568;28;20021;-80
2020/12/30 05:08:43;;;;;;;18.67;12.27;;;3.10;93.10;;;;;;2086809;28;20360;-80
2020/12/30 05:09:44;;;;;;;17.98;11.82;;;3.10;93.10;;;;;;2083837;28;20121;-80
2020/12/30 05:10:49;;;;;;;19.80;11.77;;;3.10;93.40;;;;;;2089412;28;20096;-80
2020/12/30 05:11:50;;;;;;;17.05;11.40;;;3.00;93.10;;;;;;2089519;28;20052;-80
2020/12/30 05:12:54;;;;;;;18.27;12.43;;;3.10;93.10;;;;;;2081755;28;20383;-80
2020/12/30 05:13:54;;;;;;;17.73;11.95;;;3.10;93.10;;;;;;2098119;28;20036;-80
2020/12/30 05:14:55;;;;;;;16.92;11.65;;;3.10;93.10;;;;;;2098030;28;20029;-80
2020/12/30 05:15:59;;;;;;;17.58;11.98;;;3.00;93.10;;;;;;2081842;28;20502;-80